Kirkland, Illinois
Current Conditions -  °F | °C
As of 12:15 PM on Friday 24 Oct 2014 (Local Time) from KDKB Reporting Station
Clear Clear  
Wind Chill: 59°   Ceiling: Unl
Heat Index: 59°   Visibility: 10mi
Dew Point: 51°   Wind: 5mph
Humidity: 73%   Direction: 230°SW
Pressure: 30.05"   Gusts: NA
Location:  42.09°N, 88.85°W
Report Text: KDKB 241715Z AUTO 23004KT 10SM CLR 15/10 A3005 RMK AO2 T01510103
Loading
Personal Weather Stations






























Interactive Weather Map
Tropical Storm Tracking
New forecast layout! Learn more

10-Day Weather Forecast

Advertisements
Track Severe Weather on mobile